createdAt,value
2018-11-13T00:00:30.365Z,8.00
2018-11-13T00:02:59.111Z,7.83
2018-11-13T00:05:27.832Z,8.73
2018-11-13T00:07:56.206Z,9.60
2018-11-13T00:10:24.557Z,8.20
2018-11-13T00:12:52.905Z,8.60
2018-11-13T00:15:21.247Z,10.37
2018-11-13T00:17:49.611Z,9.30
2018-11-13T00:20:18.814Z,8.03
2018-11-13T00:22:47.099Z,7.70
2018-11-13T00:25:16.742Z,6.40
2018-11-13T00:27:45.420Z,5.57
2018-11-13T00:30:15.593Z,6.13
2018-11-13T00:32:44.445Z,6.03
2018-11-13T00:35:13.641Z,5.27
2018-11-13T00:37:41.993Z,4.87
2018-11-13T00:40:11.204Z,5.23
2018-11-13T00:42:40.010Z,4.33
2018-11-13T00:45:08.442Z,4.30
2018-11-13T00:47:36.909Z,3.80
2018-11-13T00:50:06.002Z,4.13
2018-11-13T00:52:34.312Z,3.40
2018-11-13T00:55:02.972Z,3.50
2018-11-13T00:57:30.969Z,3.30
2018-11-13T00:59:59.244Z,3.40
2018-11-13T01:02:27.522Z,3.00
2018-11-13T01:04:55.974Z,3.10
2018-11-13T01:07:24.284Z,3.00
2018-11-13T01:09:52.653Z,3.00
2018-11-13T01:12:20.949Z,3.40
2018-11-13T01:14:49.255Z,3.13
2018-11-13T01:17:17.709Z,3.20
2018-11-13T01:19:46.074Z,3.03
2018-11-13T01:22:14.525Z,3.00
2018-11-13T01:24:42.877Z,2.83
2018-11-13T01:27:11.193Z,2.90
2018-11-13T01:29:39.684Z,2.73
2018-11-13T01:32:07.858Z,2.70
2018-11-13T01:34:36.162Z,2.60
2018-11-13T01:37:04.638Z,2.23
2018-11-13T01:39:32.955Z,2.23
2018-11-13T01:42:01.284Z,2.53
2018-11-13T01:44:29.617Z,2.43
2018-11-13T01:46:57.944Z,2.60
2018-11-13T01:49:26.287Z,2.40
2018-11-13T01:51:54.604Z,2.70
2018-11-13T01:54:22.985Z,2.40
2018-11-13T01:56:51.241Z,2.30
2018-11-13T01:59:19.561Z,2.70
2018-11-13T02:01:47.928Z,2.20
2018-11-13T02:04:16.253Z,2.13
2018-11-13T02:06:44.642Z,2.37
2018-11-13T02:09:12.987Z,2.27
2018-11-13T02:11:41.312Z,2.47
2018-11-13T02:14:09.701Z,2.37
2018-11-13T02:16:38.063Z,2.40
2018-11-13T02:19:06.378Z,2.53
2018-11-13T02:21:34.688Z,2.50
2018-11-13T02:24:03.014Z,2.90
2018-11-13T02:26:31.361Z,2.60
2018-11-13T02:28:59.725Z,2.70
2018-11-13T02:31:28.070Z,2.77
2018-11-13T02:33:56.366Z,2.50
2018-11-13T02:36:24.682Z,2.40
2018-11-13T02:38:53.007Z,2.47
2018-11-13T02:41:21.313Z,3.03
2018-11-13T02:43:49.722Z,2.97
2018-11-13T02:46:18.149Z,3.73
2018-11-13T02:48:46.469Z,2.97
2018-11-13T02:51:14.800Z,2.70
2018-11-13T02:53:43.133Z,2.90
2018-11-13T02:56:11.474Z,3.10
2018-11-13T02:58:39.800Z,3.03
2018-11-13T03:01:08.125Z,2.90
2018-11-13T03:03:36.553Z,3.23
2018-11-13T03:06:04.961Z,3.23
2018-11-13T03:08:33.296Z,3.30
2018-11-13T03:11:01.641Z,3.10
2018-11-13T03:13:30.055Z,2.73
2018-11-13T03:15:58.535Z,3.10
2018-11-13T03:18:26.922Z,2.90
2018-11-13T03:20:55.221Z,2.20
2018-11-13T03:23:23.571Z,2.63
2018-11-13T03:25:51.917Z,2.90
2018-11-13T03:28:20.265Z,2.33
2018-11-13T03:30:48.772Z,1.90
2018-11-13T03:33:16.996Z,2.00
2018-11-13T03:35:45.328Z,1.80
2018-11-13T03:38:13.749Z,1.57
2018-11-13T03:40:42.132Z,1.93
2018-11-13T03:43:10.494Z,1.80
2018-11-13T03:45:38.812Z,1.50
2018-11-13T03:48:07.198Z,1.80
2018-11-13T03:50:35.523Z,1.97
2018-11-13T03:53:03.861Z,1.53
2018-11-13T03:55:32.172Z,1.50
2018-11-13T03:58:00.465Z,1.60
2018-11-13T04:00:28.849Z,2.27
2018-11-13T04:02:57.202Z,1.93
2018-11-13T04:05:25.560Z,1.97
2018-11-13T04:07:54.870Z,2.30
2018-11-13T04:10:23.922Z,2.40
2018-11-13T04:12:52.307Z,2.17
2018-11-13T04:15:22.636Z,1.70
2018-11-13T04:17:50.962Z,1.80
2018-11-13T04:20:20.440Z,1.93
2018-11-13T04:22:49.197Z,1.73
2018-11-13T04:25:17.606Z,1.60
2018-11-13T04:27:45.975Z,1.73
2018-11-13T04:30:15.617Z,1.30
2018-11-13T04:32:44.077Z,1.30
2018-11-13T04:35:13.449Z,1.70
2018-11-13T04:37:41.745Z,1.23
2018-11-13T04:40:12.775Z,1.20
2018-11-13T04:42:42.173Z,1.40
2018-11-13T04:45:11.963Z,1.30
2018-11-13T04:47:40.325Z,1.40
2018-11-13T04:50:10.285Z,1.17
2018-11-13T04:52:38.662Z,1.00
2018-11-13T04:55:07.538Z,1.23
2018-11-13T04:57:35.918Z,1.50
2018-11-13T05:00:06.457Z,1.57
2018-11-13T05:02:34.863Z,1.60
2018-11-13T05:05:03.153Z,1.43
2018-11-13T05:07:31.524Z,2.30
2018-11-13T05:09:59.912Z,2.30
2018-11-13T05:12:28.254Z,2.03
2018-11-13T05:14:56.616Z,2.40
2018-11-13T05:17:24.924Z,2.60
2018-11-13T05:19:53.304Z,2.27
2018-11-13T05:22:21.665Z,2.50
2018-11-13T05:24:50.016Z,3.20
2018-11-13T05:27:18.407Z,2.80
2018-11-13T05:29:46.756Z,2.20
2018-11-13T05:32:15.114Z,3.70
2018-11-13T05:34:43.459Z,2.53
2018-11-13T05:37:11.829Z,2.93
2018-11-13T05:39:40.173Z,3.07
2018-11-13T05:42:08.533Z,3.20
2018-11-13T05:44:36.885Z,3.23
2018-11-13T05:47:05.334Z,2.80
2018-11-13T05:49:33.693Z,3.07
2018-11-13T05:52:02.073Z,2.63
2018-11-13T05:54:30.398Z,2.43
2018-11-13T05:56:58.883Z,2.37
2018-11-13T05:59:27.307Z,2.40
2018-11-13T06:01:55.650Z,2.37
2018-11-13T06:04:24.000Z,2.40
2018-11-13T06:06:52.361Z,2.53
2018-11-13T06:09:20.742Z,1.83
2018-11-13T06:11:49.118Z,2.07
2018-11-13T06:14:17.623Z,2.13
2018-11-13T06:16:45.909Z,1.87
2018-11-13T06:19:14.312Z,2.40
2018-11-13T06:21:42.726Z,2.40
2018-11-13T06:24:11.147Z,3.20
2018-11-13T06:26:39.521Z,2.63
2018-11-13T06:29:08.109Z,2.30
2018-11-13T06:31:36.681Z,2.43
2018-11-13T06:34:05.048Z,2.67
2018-11-13T06:36:33.530Z,2.60
2018-11-13T06:39:01.965Z,3.23
2018-11-13T06:41:30.391Z,2.80
2018-11-13T06:43:58.798Z,2.80
2018-11-13T06:46:27.217Z,3.07
2018-11-13T06:48:55.761Z,2.90
2018-11-13T06:51:24.219Z,4.50
2018-11-13T06:54:03.810Z,4.50
2018-11-13T06:56:32.246Z,4.83
2018-11-13T06:59:00.801Z,6.00
2018-11-13T07:01:29.169Z,5.57
2018-11-13T07:03:57.541Z,3.80
2018-11-13T07:06:25.963Z,3.10
2018-11-13T07:08:54.443Z,3.03
2018-11-13T07:11:22.839Z,2.40
2018-11-13T07:13:51.199Z,2.10
2018-11-13T07:16:19.614Z,1.80
2018-11-13T07:18:47.977Z,2.20
2018-11-13T07:21:16.447Z,1.53
2018-11-13T07:23:44.885Z,1.97
2018-11-13T07:26:13.335Z,2.00
2018-11-13T07:28:41.679Z,2.40
2018-11-13T07:31:10.151Z,1.60
2018-11-13T07:33:38.565Z,1.90
2018-11-13T07:36:07.030Z,3.37
2018-11-13T07:38:35.396Z,3.00
2018-11-13T07:41:05.651Z,2.87
2018-11-13T07:43:33.954Z,2.00
2018-11-13T07:46:02.557Z,2.70
2018-11-13T07:48:30.950Z,2.30
2018-11-13T07:50:59.377Z,2.00
2018-11-13T07:53:27.785Z,2.27
2018-11-13T07:55:56.206Z,2.07
2018-11-13T07:58:24.652Z,1.80
2018-11-13T08:00:52.950Z,2.00
2018-11-13T08:03:30.458Z,2.23
2018-11-13T08:05:59.192Z,2.90
2018-11-13T08:08:27.577Z,2.10
2018-11-13T08:10:55.970Z,2.10
2018-11-13T08:13:24.369Z,1.43
2018-11-13T08:15:52.668Z,2.23
2018-11-13T08:18:20.984Z,1.70
2018-11-13T08:20:49.360Z,1.90
2018-11-13T08:23:17.757Z,1.50
2018-11-13T08:25:46.091Z,1.40
2018-11-13T08:28:14.569Z,1.53
2018-11-13T08:30:42.974Z,1.40
2018-11-13T08:33:11.359Z,1.50
2018-11-13T08:35:39.684Z,1.30
2018-11-13T08:38:08.081Z,1.20
2018-11-13T08:40:37.107Z,1.10
2018-11-13T08:43:05.830Z,1.43
2018-11-13T08:45:34.209Z,1.67
2018-11-13T08:48:02.596Z,1.50
2018-11-13T08:50:31.316Z,2.77
2018-11-13T08:52:59.646Z,1.63
2018-11-13T08:55:28.017Z,1.27
2018-11-13T08:57:56.377Z,1.20
2018-11-13T09:00:24.745Z,1.77
2018-11-13T09:02:53.134Z,1.57
2018-11-13T09:05:21.575Z,1.67
2018-11-13T09:07:49.964Z,1.63
2018-11-13T09:10:19.126Z,1.50
2018-11-13T09:12:47.917Z,1.70
2018-11-13T09:15:18.636Z,2.17
2018-11-13T09:17:47.087Z,2.30
2018-11-13T09:20:16.602Z,1.23
2018-11-13T09:22:45.050Z,1.63
2018-11-13T09:25:17.586Z,1.60
2018-11-13T09:27:45.958Z,1.73
2018-11-13T09:30:16.048Z,1.93
2018-11-13T09:32:44.642Z,1.50
2018-11-13T09:35:14.054Z,1.10
2018-11-13T09:37:42.622Z,1.30
2018-11-13T09:40:13.727Z,1.60
2018-11-13T09:42:42.773Z,1.67
2018-11-13T09:45:11.972Z,2.00
2018-11-13T09:47:40.631Z,1.70
2018-11-13T09:50:12.376Z,1.30
2018-11-13T09:52:41.380Z,1.60
2018-11-13T09:55:11.338Z,1.50
2018-11-13T09:57:39.721Z,4.93
2018-11-13T10:00:14.309Z,2.23
2018-11-13T10:02:44.264Z,2.93
2018-11-13T10:05:12.591Z,2.87
2018-11-13T10:07:40.614Z,1.80
2018-11-13T10:10:09.812Z,3.47
2018-11-13T10:12:38.737Z,1.70
2018-11-13T10:15:11.228Z,1.73
2018-11-13T10:17:40.011Z,1.90
2018-11-13T10:20:09.437Z,2.10
2018-11-13T10:22:37.836Z,2.23
2018-11-13T10:25:07.106Z,1.90
2018-11-13T10:27:35.552Z,5.60
2018-11-13T10:30:04.415Z,2.17
2018-11-13T10:32:32.806Z,2.73
2018-11-13T10:35:01.151Z,2.70
2018-11-13T10:37:29.533Z,3.37
2018-11-13T10:39:57.877Z,2.70
2018-11-13T10:42:26.213Z,2.30
2018-11-13T10:44:54.608Z,3.20
2018-11-13T10:47:23.657Z,2.47
2018-11-13T10:49:52.462Z,2.23
2018-11-13T10:52:20.859Z,4.03
2018-11-13T10:54:49.219Z,2.33
2018-11-13T10:57:17.657Z,4.40
2018-11-13T10:59:46.242Z,2.70
2018-11-13T11:02:19.900Z,3.27
2018-11-13T11:04:49.291Z,1.90
2018-11-13T11:07:17.771Z,2.30
2018-11-13T11:09:46.634Z,3.97
2018-11-13T11:12:15.030Z,3.90
2018-11-13T11:14:43.684Z,3.90
2018-11-13T11:17:12.161Z,2.67
2018-11-13T11:19:40.590Z,2.20
2018-11-13T11:22:09.020Z,2.90
2018-11-13T11:24:37.403Z,2.83
2018-11-13T11:27:05.776Z,3.27
2018-11-13T11:29:34.105Z,3.10
2018-11-13T11:32:02.543Z,3.10
2018-11-13T11:34:30.903Z,3.03
2018-11-13T11:36:59.270Z,3.00
2018-11-13T11:39:27.672Z,3.70
2018-11-13T11:41:56.061Z,2.80
2018-11-13T11:44:24.482Z,3.03
2018-11-13T11:46:52.818Z,3.43
2018-11-13T11:49:21.137Z,3.53
2018-11-13T11:51:49.471Z,7.80
2018-11-13T11:54:17.778Z,3.97
2018-11-13T11:56:46.222Z,2.90
2018-11-13T11:59:14.609Z,4.47
2018-11-13T12:01:43.073Z,2.80
2018-11-13T12:04:11.441Z,2.67
2018-11-13T12:06:39.827Z,3.33
2018-11-13T12:09:09.635Z,2.50
2018-11-13T12:11:39.196Z,3.50
2018-11-13T12:14:07.617Z,3.37
2018-11-13T12:16:36.841Z,2.90
2018-11-13T12:19:05.278Z,2.53
2018-11-13T12:21:33.718Z,2.50
2018-11-13T12:24:02.376Z,3.27
2018-11-13T12:26:30.854Z,4.63
2018-11-13T12:28:59.259Z,2.40
2018-11-13T12:31:27.680Z,4.50
2018-11-13T12:33:56.106Z,2.10
2018-11-13T12:36:24.635Z,2.47
2018-11-13T12:38:53.111Z,3.67
2018-11-13T12:41:21.531Z,2.90
2018-11-13T12:43:49.955Z,2.73
2018-11-13T12:46:18.396Z,2.50
2018-11-13T12:48:46.771Z,2.80
2018-11-13T12:51:20.454Z,2.40
2018-11-13T12:53:48.945Z,3.23
2018-11-13T12:56:17.456Z,2.70
2018-11-13T12:58:45.824Z,2.90
2018-11-13T13:01:14.226Z,2.40
2018-11-13T13:03:42.588Z,2.10
2018-11-13T13:06:11.027Z,3.60
2018-11-13T13:08:39.483Z,4.70
2018-11-13T13:11:07.809Z,4.43
2018-11-13T13:13:36.284Z,3.43
2018-11-13T13:16:05.080Z,3.10
2018-11-13T13:18:33.365Z,2.83
2018-11-13T13:21:01.741Z,2.90
2018-11-13T13:23:30.179Z,2.30
2018-11-13T13:25:58.742Z,2.83
2018-11-13T13:28:26.935Z,3.57
2018-11-13T13:30:55.328Z,2.67
2018-11-13T13:33:23.702Z,2.27
2018-11-13T13:35:58.401Z,2.67
2018-11-13T13:38:26.839Z,3.37
2018-11-13T13:40:56.466Z,3.30
2018-11-13T13:43:25.833Z,3.47
2018-11-13T13:45:54.234Z,2.40
2018-11-13T13:48:23.150Z,2.10
2018-11-13T13:50:51.538Z,2.53
2018-11-13T13:53:20.423Z,2.07
2018-11-13T13:55:49.381Z,2.10
2018-11-13T13:58:18.331Z,2.20
2018-11-13T14:00:46.922Z,2.23
2018-11-13T14:03:15.491Z,2.37
2018-11-13T14:05:44.444Z,2.13
2018-11-13T14:08:13.518Z,3.00
2018-11-13T14:10:42.081Z,3.17
2018-11-13T14:13:10.691Z,2.50
2018-11-13T14:15:39.360Z,2.47
2018-11-13T14:18:07.985Z,2.23
2018-11-13T14:20:36.345Z,2.40
2018-11-13T14:23:04.924Z,2.63
2018-11-13T14:25:33.336Z,2.80
2018-11-13T14:28:01.680Z,2.27
2018-11-13T14:30:32.121Z,2.53
2018-11-13T14:33:02.028Z,2.73
2018-11-13T14:35:30.489Z,1.80
2018-11-13T14:37:58.940Z,2.27
2018-11-13T14:40:43.835Z,2.07
2018-11-13T14:43:12.414Z,2.50
2018-11-13T14:45:40.902Z,3.40
2018-11-13T14:48:09.813Z,3.37
2018-11-13T14:50:38.680Z,2.10
2018-11-13T14:53:07.477Z,2.43
2018-11-13T14:55:37.941Z,2.33
2018-11-13T14:58:07.579Z,2.30
2018-11-13T15:00:36.802Z,3.10
2018-11-13T15:03:06.322Z,2.07
2018-11-13T15:05:35.126Z,2.20
2018-11-13T15:08:04.795Z,2.27
2018-11-13T15:10:46.049Z,1.70
2018-11-13T15:13:14.662Z,1.80
2018-11-13T15:15:43.134Z,2.73
2018-11-13T15:18:12.022Z,2.40
2018-11-13T15:20:40.735Z,2.07
2018-11-13T15:23:10.171Z,2.07
2018-11-13T15:25:38.712Z,2.23
2018-11-13T15:28:07.797Z,2.40
2018-11-13T15:30:37.764Z,2.90
2018-11-13T15:33:10.322Z,2.33
2018-11-13T15:35:38.754Z,2.93
2018-11-13T15:38:07.649Z,2.40
2018-11-13T15:40:36.145Z,3.67
2018-11-13T15:43:04.702Z,2.40
2018-11-13T15:45:33.132Z,4.00
2018-11-13T15:48:02.611Z,2.60
2018-11-13T15:50:32.426Z,2.73
2018-11-13T15:53:00.789Z,2.97
2018-11-13T15:55:29.163Z,4.80
2018-11-13T15:57:58.090Z,3.17
2018-11-13T16:00:32.740Z,3.33
2018-11-13T16:03:02.882Z,11.33
2018-11-13T16:05:37.437Z,17.83
2018-11-13T16:08:06.790Z,24.50
2018-11-13T16:10:35.239Z,6.93
2018-11-13T16:13:03.675Z,10.87
2018-11-13T16:15:32.631Z,5.73
2018-11-13T16:18:02.546Z,8.00
2018-11-13T16:20:30.932Z,15.57
2018-11-13T16:22:59.428Z,16.30
2018-11-13T16:25:28.185Z,13.20
2018-11-13T16:27:56.552Z,34.43
2018-11-13T16:30:26.370Z,68.63
2018-11-13T16:32:54.826Z,5.03
2018-11-13T16:35:24.289Z,4.40
2018-11-13T16:37:53.367Z,3.63
2018-11-13T16:40:26.067Z,26.93
2018-11-13T16:42:54.473Z,12.00
2018-11-13T16:45:23.793Z,5.10
2018-11-13T16:47:52.554Z,4.07
2018-11-13T16:50:26.150Z,3.70
2018-11-13T16:52:54.736Z,4.40
2018-11-13T16:55:28.529Z,18.77
2018-11-13T16:57:57.732Z,6.30
2018-11-13T17:00:26.256Z,6.70
2018-11-13T17:02:54.714Z,37.23
2018-11-13T17:05:23.956Z,13.27
2018-11-13T17:07:52.287Z,3.60
2018-11-13T17:10:22.040Z,3.40
2018-11-13T17:12:51.071Z,2.60
2018-11-13T17:15:20.526Z,2.47
2018-11-13T17:17:49.810Z,2.80
2018-11-13T17:20:18.283Z,2.60
2018-11-13T17:22:47.338Z,2.80
2018-11-13T17:25:17.052Z,3.60
2018-11-13T17:27:46.402Z,2.87
2018-11-13T17:30:21.097Z,3.03
2018-11-13T17:32:50.034Z,4.27
2018-11-13T17:35:19.727Z,6.60
2018-11-13T17:37:49.233Z,3.93
2018-11-13T17:40:19.574Z,3.53
2018-11-13T17:42:48.789Z,7.27
2018-11-13T17:45:19.618Z,5.93
2018-11-13T17:47:48.321Z,2.83
2018-11-13T17:50:19.238Z,3.67
2018-11-13T17:52:48.370Z,3.23
2018-11-13T17:55:17.447Z,3.90
2018-11-13T17:57:46.921Z,3.93
2018-11-13T18:00:23.173Z,3.67
2018-11-13T18:02:51.585Z,3.57
2018-11-13T18:05:21.154Z,3.23
2018-11-13T18:07:50.090Z,3.50
2018-11-13T18:10:18.725Z,3.13
2018-11-13T18:12:48.026Z,3.40
2018-11-13T18:15:17.926Z,3.50
2018-11-13T18:17:46.630Z,3.20
2018-11-13T18:20:16.779Z,3.17
2018-11-13T18:22:45.508Z,3.37
2018-11-13T18:25:14.011Z,3.67
2018-11-13T18:27:44.732Z,4.03
2018-11-13T18:30:16.158Z,3.33
2018-11-13T18:32:45.535Z,3.23
2018-11-13T18:35:16.536Z,3.07
2018-11-13T18:37:45.632Z,3.77
2018-11-13T18:40:15.328Z,3.30
2018-11-13T18:42:45.266Z,3.60
2018-11-13T18:45:18.510Z,4.07
2018-11-13T18:47:46.989Z,3.40
2018-11-13T18:50:18.111Z,3.33
2018-11-13T18:52:46.533Z,3.60
2018-11-13T18:55:18.808Z,3.90
2018-11-13T18:57:47.299Z,3.30
2018-11-13T19:00:18.940Z,3.30
2018-11-13T19:02:47.485Z,3.10
2018-11-13T19:05:16.480Z,3.43
2018-11-13T19:07:44.967Z,3.33
2018-11-13T19:10:24.760Z,2.97
2018-11-13T19:12:53.806Z,3.17
2018-11-13T19:15:22.060Z,7.50
2018-11-13T19:17:50.555Z,5.23
2018-11-13T19:20:20.080Z,5.20
2018-11-13T19:22:48.582Z,4.87
2018-11-13T19:25:19.289Z,4.97
2018-11-13T19:27:48.177Z,3.77
2018-11-13T19:30:17.337Z,4.30
2018-11-13T19:32:45.681Z,4.27
2018-11-13T19:35:14.681Z,3.23
2018-11-13T19:37:43.067Z,5.40
2018-11-13T19:40:15.110Z,4.73
2018-11-13T19:42:44.229Z,7.80
2018-11-13T19:45:12.699Z,15.50
2018-11-13T19:47:41.032Z,6.90
2018-11-13T19:50:11.712Z,6.63
2018-11-13T19:52:40.257Z,6.00
2018-11-13T19:55:09.709Z,6.20
2018-11-13T19:57:38.178Z,4.60
2018-11-13T20:00:08.700Z,5.50
2018-11-13T20:02:37.392Z,8.20
2018-11-13T20:05:06.835Z,9.07
2018-11-13T20:07:35.270Z,4.93
2018-11-13T20:10:04.033Z,6.17
2018-11-13T20:12:32.506Z,6.40
2018-11-13T20:15:01.017Z,6.20
2018-11-13T20:17:29.425Z,7.70
2018-11-13T20:19:57.831Z,6.33
2018-11-13T20:22:26.300Z,7.27
2018-11-13T20:24:54.744Z,6.70
2018-11-13T20:27:23.111Z,5.93
2018-11-13T20:29:51.590Z,7.53
2018-11-13T20:32:20.204Z,14.10
2018-11-13T20:34:48.802Z,20.73
2018-11-13T20:37:17.248Z,20.40
2018-11-13T20:39:45.695Z,16.30
2018-11-13T20:42:14.098Z,19.20
2018-11-13T20:44:42.550Z,16.67
2018-11-13T20:47:10.963Z,12.83
2018-11-13T20:49:39.413Z,13.50
2018-11-13T20:52:07.809Z,11.23
2018-11-13T20:54:36.416Z,11.07
2018-11-13T20:57:04.693Z,8.20
2018-11-13T20:59:33.199Z,8.10
2018-11-13T21:02:01.783Z,6.67
2018-11-13T21:04:30.499Z,6.83
2018-11-13T21:06:58.916Z,6.60
2018-11-13T21:09:27.367Z,6.93
2018-11-13T21:11:55.805Z,6.20
2018-11-13T21:14:24.351Z,5.70
2018-11-13T21:16:52.971Z,7.60
2018-11-13T21:19:21.225Z,7.70
2018-11-13T21:21:49.682Z,7.13
2018-11-13T21:24:18.126Z,7.67
2018-11-13T21:26:46.504Z,10.80
2018-11-13T21:29:14.931Z,6.50
2018-11-13T21:31:43.376Z,7.30
2018-11-13T21:34:11.792Z,6.87
2018-11-13T21:36:40.178Z,8.07
2018-11-13T21:39:10.154Z,6.83
2018-11-13T21:41:38.754Z,6.60
2018-11-13T21:44:07.389Z,6.30
2018-11-13T21:46:35.842Z,7.30
2018-11-13T21:49:04.595Z,6.40
2018-11-13T21:51:33.539Z,7.00
2018-11-13T21:54:01.942Z,6.00
2018-11-13T21:56:30.310Z,6.17
2018-11-13T21:58:58.743Z,8.27
2018-11-13T22:01:27.274Z,6.80
2018-11-13T22:03:55.625Z,5.67
2018-11-13T22:06:24.046Z,6.20
2018-11-13T22:08:52.567Z,5.30
2018-11-13T22:11:21.071Z,5.53
2018-11-13T22:13:49.473Z,5.43
2018-11-13T22:16:17.914Z,5.83
2018-11-13T22:18:46.290Z,5.10
2018-11-13T22:21:14.803Z,6.03
2018-11-13T22:23:43.127Z,5.70
2018-11-13T22:26:11.545Z,6.30
2018-11-13T22:28:40.080Z,6.13
2018-11-13T22:31:08.315Z,7.87
2018-11-13T22:33:36.752Z,9.13
2018-11-13T22:36:05.376Z,10.40
2018-11-13T22:38:33.781Z,12.87
2018-11-13T22:41:02.241Z,11.70
2018-11-13T22:43:30.643Z,10.40
2018-11-13T22:45:59.061Z,8.50
2018-11-13T22:48:27.457Z,7.70
2018-11-13T22:50:56.003Z,8.10
2018-11-13T22:53:24.252Z,8.10
2018-11-13T22:55:52.608Z,8.50
2018-11-13T22:58:20.958Z,9.20
2018-11-13T23:00:49.392Z,8.30
2018-11-13T23:03:18.821Z,7.20
2018-11-13T23:05:48.215Z,8.90
2018-11-13T23:08:18.924Z,11.10
2018-11-13T23:10:48.268Z,11.73
2018-11-13T23:13:16.702Z,11.83
2018-11-13T23:15:45.086Z,12.47
2018-11-13T23:18:13.470Z,11.00
2018-11-13T23:20:41.877Z,11.80
2018-11-13T23:23:10.231Z,11.70
2018-11-13T23:25:38.585Z,12.47
2018-11-13T23:28:07.003Z,10.60
2018-11-13T23:30:35.365Z,10.70
2018-11-13T23:33:03.760Z,10.33
2018-11-13T23:35:32.104Z,10.27
2018-11-13T23:38:00.855Z,11.30
2018-11-13T23:40:29.675Z,11.20
2018-11-13T23:42:58.050Z,10.73
2018-11-13T23:45:27.058Z,9.30
2018-11-13T23:47:55.421Z,12.17
2018-11-13T23:50:24.130Z,13.10
2018-11-13T23:52:52.838Z,11.57
2018-11-13T23:55:21.276Z,10.97
2018-11-13T23:57:49.683Z,12.40
